createdAt,value
2022-07-29T00:00:00.802Z,60.67
2022-07-29T00:02:28.956Z,60.59
2022-07-29T00:04:56.108Z,60.45
2022-07-29T00:07:22.996Z,60.63
2022-07-29T00:09:50.753Z,60.49
2022-07-29T00:12:25.235Z,60.60
2022-07-29T00:14:56.889Z,60.74
2022-07-29T00:17:25.090Z,60.65
2022-07-29T00:19:52.166Z,60.67
2022-07-29T00:22:19.677Z,60.59
2022-07-29T00:24:48.014Z,60.65
2022-07-29T00:27:14.770Z,60.91
2022-07-29T00:29:41.566Z,61.01
2022-07-29T00:32:08.652Z,60.94
2022-07-29T00:34:53.851Z,60.94
2022-07-29T00:37:20.840Z,61.20
2022-07-29T00:39:47.626Z,61.20
2022-07-29T00:42:14.467Z,61.28
2022-07-29T00:44:42.416Z,61.20
2022-07-29T00:47:13.034Z,61.13
2022-07-29T00:49:41.169Z,61.25
2022-07-29T00:52:09.930Z,61.44
2022-07-29T00:54:44.076Z,61.33
2022-07-29T00:57:11.713Z,61.32
2022-07-29T00:59:38.537Z,61.11
2022-07-29T01:02:05.608Z,61.30
2022-07-29T01:04:33.211Z,61.14
2022-07-29T01:07:03.119Z,61.18
2022-07-29T01:09:40.844Z,60.99
2022-07-29T01:12:20.155Z,61.03
2022-07-29T01:14:49.044Z,61.16
2022-07-29T01:17:39.127Z,61.26
2022-07-29T01:20:21.380Z,61.67
2022-07-29T01:23:25.426Z,61.55
2022-07-29T01:26:25.565Z,61.39
2022-07-29T01:29:04.030Z,61.74
2022-07-29T01:31:41.465Z,61.84
2022-07-29T01:34:30.672Z,61.91
2022-07-29T01:37:21.243Z,61.94
2022-07-29T01:39:51.610Z,61.87
2022-07-29T01:42:18.304Z,61.85
2022-07-29T01:45:20.559Z,61.56
2022-07-29T01:47:59.342Z,61.84
2022-07-29T01:50:50.409Z,61.84
2022-07-29T01:53:30.274Z,61.86
2022-07-29T01:56:07.657Z,61.83
2022-07-29T01:58:37.835Z,61.89
2022-07-29T02:01:06.530Z,61.99
2022-07-29T02:03:36.981Z,61.98
2022-07-29T02:06:07.539Z,62.20
2022-07-29T02:08:35.348Z,61.72
2022-07-29T02:11:04.808Z,62.20
2022-07-29T02:13:34.493Z,62.22
2022-07-29T02:16:03.674Z,61.88
2022-07-29T02:18:32.056Z,62.04
2022-07-29T02:21:01.948Z,62.13
2022-07-29T02:23:28.724Z,61.86
2022-07-29T02:26:00.505Z,62.21
2022-07-29T02:28:29.849Z,62.37
2022-07-29T02:30:59.114Z,61.72
2022-07-29T02:33:27.603Z,61.85
2022-07-29T02:35:56.052Z,62.20
2022-07-29T02:38:44.599Z,62.02
2022-07-29T02:41:18.567Z,62.30
2022-07-29T02:43:49.013Z,62.07
2022-07-29T02:46:28.931Z,62.08
2022-07-29T02:49:16.882Z,62.31
2022-07-29T02:51:54.122Z,62.61
2022-07-29T02:54:51.364Z,62.30
2022-07-29T02:58:00.703Z,62.16
2022-07-29T03:00:32.844Z,62.05
2022-07-29T03:03:04.692Z,62.53
2022-07-29T03:05:32.469Z,62.33
2022-07-29T03:08:04.279Z,62.44
2022-07-29T03:10:32.327Z,62.46
2022-07-29T03:13:00.080Z,62.62
2022-07-29T03:15:28.288Z,62.73
2022-07-29T03:17:56.781Z,62.51
2022-07-29T03:20:23.912Z,62.85
2022-07-29T03:22:51.417Z,62.80
2022-07-29T03:25:19.807Z,63.22
2022-07-29T03:27:47.485Z,63.21
2022-07-29T03:30:21.804Z,62.99
2022-07-29T03:32:52.274Z,63.01
2022-07-29T03:35:23.823Z,63.00
2022-07-29T03:37:50.829Z,62.76
2022-07-29T03:40:23.036Z,62.89
2022-07-29T03:42:51.156Z,63.07
2022-07-29T03:45:20.339Z,63.14
2022-07-29T03:47:59.918Z,63.25
2022-07-29T03:50:30.123Z,63.04
2022-07-29T03:52:57.366Z,62.64
2022-07-29T03:55:25.070Z,62.71
2022-07-29T03:57:52.362Z,62.39
2022-07-29T04:00:20.657Z,62.63
2022-07-29T04:02:50.098Z,62.58
2022-07-29T04:05:18.284Z,62.73
2022-07-29T04:07:51.333Z,63.03
2022-07-29T04:10:26.916Z,62.85
2022-07-29T04:12:59.035Z,63.04
2022-07-29T04:15:26.054Z,63.04
2022-07-29T04:17:58.011Z,62.96
2022-07-29T04:20:24.941Z,62.84
2022-07-29T04:22:51.737Z,62.80
2022-07-29T04:25:18.607Z,63.00
2022-07-29T04:28:04.102Z,62.95
2022-07-29T04:30:32.408Z,62.84
2022-07-29T04:32:59.559Z,62.86
2022-07-29T04:35:26.556Z,62.67
2022-07-29T04:37:53.546Z,62.68
2022-07-29T04:40:20.652Z,63.05
2022-07-29T04:42:48.085Z,62.71
2022-07-29T04:45:16.377Z,62.96
2022-07-29T04:47:43.362Z,63.13
2022-07-29T04:50:11.022Z,63.35
2022-07-29T04:52:38.093Z,63.43
2022-07-29T04:55:06.449Z,63.27
2022-07-29T04:57:33.357Z,63.87
2022-07-29T05:00:00.232Z,63.64
2022-07-29T05:02:27.133Z,63.75
2022-07-29T05:04:54.191Z,63.56
2022-07-29T05:07:21.237Z,63.56
2022-07-29T05:09:48.292Z,63.44
2022-07-29T05:12:15.458Z,63.41
2022-07-29T05:14:42.302Z,63.37
2022-07-29T05:17:09.215Z,63.23
2022-07-29T05:19:39.780Z,62.97
2022-07-29T05:22:06.851Z,63.16
2022-07-29T05:24:33.798Z,62.99
2022-07-29T05:27:00.748Z,62.75
2022-07-29T05:29:44.414Z,62.87
2022-07-29T05:32:13.079Z,62.78
2022-07-29T05:34:50.845Z,62.82
2022-07-29T05:37:22.199Z,63.43
2022-07-29T05:39:56.274Z,63.46
2022-07-29T05:42:24.180Z,63.61
2022-07-29T05:44:50.991Z,63.75
2022-07-29T05:47:17.924Z,63.05
2022-07-29T05:49:44.841Z,63.20
2022-07-29T05:52:11.735Z,63.09
2022-07-29T05:54:38.762Z,63.08
2022-07-29T05:57:06.520Z,63.03
2022-07-29T05:59:37.577Z,63.23
2022-07-29T06:02:06.381Z,63.16
2022-07-29T06:04:34.652Z,63.41
2022-07-29T06:07:02.966Z,63.34
2022-07-29T06:09:30.238Z,63.37
2022-07-29T06:11:57.221Z,63.25
2022-07-29T06:14:23.967Z,63.13
2022-07-29T06:16:50.925Z,63.17
2022-07-29T06:19:17.776Z,63.08
2022-07-29T06:21:45.005Z,62.85
2022-07-29T06:24:14.063Z,62.71
2022-07-29T06:26:42.011Z,62.40
2022-07-29T06:29:11.696Z,61.95
2022-07-29T06:31:39.278Z,61.51
2022-07-29T06:34:06.193Z,61.01
2022-07-29T06:36:36.720Z,60.51
2022-07-29T06:39:08.384Z,59.66
2022-07-29T06:41:35.174Z,58.89
2022-07-29T06:44:02.456Z,57.96
2022-07-29T06:46:30.296Z,57.62
2022-07-29T06:48:57.301Z,57.70
2022-07-29T06:51:24.404Z,57.34
2022-07-29T06:53:59.851Z,56.39
2022-07-29T06:56:39.284Z,56.00
2022-07-29T06:59:08.349Z,55.71
2022-07-29T07:01:36.181Z,55.12
2022-07-29T07:04:03.262Z,54.26
2022-07-29T07:06:30.221Z,53.66
2022-07-29T07:08:57.002Z,53.40
2022-07-29T07:11:23.948Z,52.98
2022-07-29T07:13:51.012Z,52.14
2022-07-29T07:16:17.946Z,51.77
2022-07-29T07:18:46.339Z,51.23
2022-07-29T07:21:19.326Z,50.94
2022-07-29T07:23:47.203Z,50.72
2022-07-29T07:26:14.136Z,50.52
2022-07-29T07:28:41.020Z,50.28
2022-07-29T07:31:07.913Z,49.78
2022-07-29T07:33:34.781Z,49.30
2022-07-29T07:36:01.589Z,48.77
2022-07-29T07:38:28.406Z,47.88
2022-07-29T07:40:55.503Z,47.61
2022-07-29T07:43:22.960Z,47.07
2022-07-29T07:45:49.908Z,46.75
2022-07-29T07:48:16.844Z,46.04
2022-07-29T07:50:44.885Z,46.26
2022-07-29T07:53:11.855Z,45.50
2022-07-29T07:56:09.308Z,45.16
2022-07-29T07:58:32.196Z,44.76
2022-07-29T08:00:59.219Z,44.56
2022-07-29T08:03:26.039Z,44.11
2022-07-29T08:05:53.027Z,44.00
2022-07-29T08:08:20.113Z,43.67
2022-07-29T08:10:53.610Z,43.08
2022-07-29T08:13:22.259Z,42.81
2022-07-29T08:15:58.586Z,42.68
2022-07-29T08:18:26.863Z,42.77
2022-07-29T08:20:53.711Z,42.39
2022-07-29T08:23:21.678Z,41.88
2022-07-29T08:25:50.125Z,41.60
2022-07-29T08:28:18.482Z,42.13
2022-07-29T08:30:45.685Z,41.22
2022-07-29T08:33:12.747Z,41.66
2022-07-29T08:35:40.924Z,41.06
2022-07-29T08:38:07.720Z,40.84
2022-07-29T08:40:34.667Z,40.75
2022-07-29T08:43:09.112Z,40.38
2022-07-29T08:45:48.101Z,39.92
2022-07-29T08:48:17.748Z,40.00
2022-07-29T08:50:46.416Z,39.79
2022-07-29T08:53:15.722Z,39.45
2022-07-29T08:55:49.885Z,39.15
2022-07-29T08:58:17.630Z,38.98
2022-07-29T09:00:46.942Z,39.08
2022-07-29T09:03:19.190Z,38.72
2022-07-29T09:05:49.571Z,38.90
2022-07-29T09:08:17.441Z,38.70
2022-07-29T09:10:45.999Z,38.13
2022-07-29T09:13:12.986Z,38.57
2022-07-29T09:15:39.766Z,38.40
2022-07-29T09:18:06.633Z,38.10
2022-07-29T09:20:52.113Z,38.14
2022-07-29T09:23:24.248Z,38.13
2022-07-29T09:25:51.690Z,37.72
2022-07-29T09:28:19.340Z,37.46
2022-07-29T09:30:59.314Z,37.53
2022-07-29T09:33:35.796Z,37.05
2022-07-29T09:36:06.434Z,36.82
2022-07-29T09:38:33.797Z,36.75
2022-07-29T09:41:05.812Z,36.32
2022-07-29T09:43:33.537Z,36.52
2022-07-29T09:46:14.812Z,36.87
2022-07-29T09:48:42.037Z,36.90
2022-07-29T09:51:26.888Z,36.30
2022-07-29T09:54:24.518Z,36.51
2022-07-29T09:56:51.359Z,36.31
2022-07-29T09:59:18.659Z,36.06
2022-07-29T10:01:45.732Z,36.71
2022-07-29T10:04:12.812Z,36.73
2022-07-29T10:07:04.770Z,37.00
2022-07-29T10:09:32.960Z,37.27
2022-07-29T10:12:14.953Z,37.12
2022-07-29T10:14:42.962Z,36.70
2022-07-29T10:17:11.417Z,36.65
2022-07-29T10:19:39.516Z,36.36
2022-07-29T10:22:09.682Z,36.26
2022-07-29T10:24:38.353Z,36.29
2022-07-29T10:27:08.309Z,36.55
2022-07-29T10:29:35.570Z,36.18
2022-07-29T10:32:21.437Z,36.66
2022-07-29T10:34:58.990Z,36.29
2022-07-29T10:37:36.139Z,36.00
2022-07-29T10:40:43.847Z,36.45
2022-07-29T10:43:34.115Z,36.36
2022-07-29T10:46:02.217Z,36.40
2022-07-29T10:48:29.336Z,35.46
2022-07-29T10:51:00.204Z,35.88
2022-07-29T10:53:50.625Z,36.16
2022-07-29T10:56:32.343Z,36.32
2022-07-29T10:59:21.461Z,36.06
2022-07-29T11:01:53.417Z,36.04
2022-07-29T11:05:00.415Z,36.08
2022-07-29T11:07:28.133Z,36.20
2022-07-29T11:10:16.456Z,37.18
2022-07-29T11:12:43.644Z,36.56
2022-07-29T11:15:24.999Z,36.34
2022-07-29T11:17:54.845Z,36.38
2022-07-29T11:20:42.477Z,36.58
2022-07-29T11:23:20.616Z,36.51
2022-07-29T11:26:23.391Z,36.46
2022-07-29T11:28:56.366Z,36.32
2022-07-29T11:31:52.714Z,36.50
2022-07-29T11:34:34.822Z,36.65
2022-07-29T11:37:10.765Z,36.22
2022-07-29T11:40:10.223Z,36.10
2022-07-29T11:42:37.150Z,35.88
2022-07-29T11:45:43.056Z,35.59
2022-07-29T11:48:29.059Z,35.82
2022-07-29T11:50:49.248Z,35.36
2022-07-29T11:53:17.289Z,35.31
2022-07-29T11:55:51.070Z,34.89
2022-07-29T11:58:26.570Z,34.88
2022-07-29T12:00:55.503Z,34.92
2022-07-29T12:03:33.381Z,35.86
2022-07-29T12:06:14.195Z,35.40
2022-07-29T12:08:47.549Z,34.82
2022-07-29T12:11:22.741Z,34.21
2022-07-29T12:13:52.356Z,33.80
2022-07-29T12:16:27.661Z,33.53
2022-07-29T12:19:02.311Z,32.27
2022-07-29T12:21:31.204Z,31.37
2022-07-29T12:24:05.962Z,30.41
2022-07-29T12:26:36.100Z,29.57
2022-07-29T12:29:03.549Z,28.71
2022-07-29T12:31:44.011Z,27.91
2022-07-29T12:34:13.545Z,27.73
2022-07-29T12:36:41.520Z,27.88
2022-07-29T12:39:10.264Z,27.08
2022-07-29T12:41:37.490Z,27.40
2022-07-29T12:44:04.485Z,27.16
2022-07-29T12:46:31.503Z,26.70
2022-07-29T12:48:59.796Z,27.17
2022-07-29T12:51:44.525Z,26.67
2022-07-29T12:54:14.635Z,26.79
2022-07-29T12:56:44.402Z,26.43
2022-07-29T12:59:22.824Z,26.25
2022-07-29T13:01:52.506Z,26.40
2022-07-29T13:04:31.245Z,26.14
2022-07-29T13:07:09.197Z,26.73
2022-07-29T13:09:46.735Z,30.64
2022-07-29T13:12:14.876Z,32.79
2022-07-29T13:14:43.018Z,34.88
2022-07-29T13:17:12.670Z,36.40
2022-07-29T13:19:44.718Z,37.63
2022-07-29T13:22:16.996Z,38.65
2022-07-29T13:24:57.262Z,39.33
2022-07-29T13:27:29.660Z,39.95
2022-07-29T13:29:58.775Z,40.60
2022-07-29T13:32:28.997Z,41.13
2022-07-29T13:35:01.610Z,41.55
2022-07-29T13:37:35.218Z,42.06
2022-07-29T13:40:04.517Z,42.30
2022-07-29T13:42:31.627Z,42.51
2022-07-29T13:44:58.765Z,42.96
2022-07-29T13:47:32.185Z,43.35
2022-07-29T13:49:59.843Z,43.46
2022-07-29T13:52:26.722Z,43.37
2022-07-29T13:54:53.653Z,44.01
2022-07-29T13:57:20.709Z,44.03
2022-07-29T13:59:51.995Z,44.56
2022-07-29T14:02:21.116Z,44.65
2022-07-29T14:04:52.648Z,44.81
2022-07-29T14:07:19.510Z,44.91
2022-07-29T14:09:46.270Z,45.26
2022-07-29T14:12:13.357Z,45.18
2022-07-29T14:14:40.140Z,45.55
2022-07-29T14:17:09.727Z,45.57
2022-07-29T14:19:36.943Z,45.91
2022-07-29T14:22:09.093Z,46.02
2022-07-29T14:24:39.454Z,46.27
2022-07-29T14:27:07.377Z,46.45
2022-07-29T14:29:37.440Z,46.33
2022-07-29T14:32:09.282Z,46.63
2022-07-29T14:34:39.313Z,46.77
2022-07-29T14:37:06.899Z,46.47
2022-07-29T14:39:38.182Z,47.15
2022-07-29T14:42:09.508Z,47.26
2022-07-29T14:44:38.705Z,47.19
2022-07-29T14:47:07.411Z,47.31
2022-07-29T14:49:35.164Z,47.21
2022-07-29T14:52:02.371Z,47.69
2022-07-29T14:54:29.381Z,47.69
2022-07-29T14:56:58.453Z,47.68
2022-07-29T14:59:25.915Z,47.26
2022-07-29T15:01:52.896Z,47.77
2022-07-29T15:04:20.306Z,47.95
2022-07-29T15:06:47.147Z,47.92
2022-07-29T15:09:14.639Z,47.62
2022-07-29T15:11:41.595Z,47.94
2022-07-29T15:14:08.649Z,48.04
2022-07-29T15:16:39.665Z,48.41
2022-07-29T15:19:10.914Z,48.27
2022-07-29T15:21:41.618Z,48.66
2022-07-29T15:24:18.774Z,48.74
2022-07-29T15:26:46.230Z,48.69
2022-07-29T15:29:13.282Z,49.21
2022-07-29T15:31:40.680Z,49.36
2022-07-29T15:34:08.264Z,49.06
2022-07-29T15:36:51.564Z,49.57
2022-07-29T15:39:19.710Z,49.50
2022-07-29T15:41:47.011Z,49.69
2022-07-29T15:44:14.178Z,50.04
2022-07-29T15:47:00.569Z,49.67
2022-07-29T15:49:47.037Z,49.84
2022-07-29T15:52:26.076Z,49.57
2022-07-29T15:54:56.942Z,49.81
2022-07-29T15:57:25.120Z,49.65
2022-07-29T15:59:52.385Z,49.77
2022-07-29T16:02:19.670Z,49.43
2022-07-29T16:04:46.707Z,49.71
2022-07-29T16:07:14.268Z,49.77
2022-07-29T16:09:41.876Z,49.64
2022-07-29T16:12:14.664Z,49.63
2022-07-29T16:14:42.202Z,49.85
2022-07-29T16:17:09.125Z,49.65
2022-07-29T16:19:41.116Z,49.72
2022-07-29T16:22:07.860Z,49.73
2022-07-29T16:24:34.773Z,49.94
2022-07-29T16:27:02.009Z,49.57
2022-07-29T16:29:29.259Z,50.00
2022-07-29T16:31:56.206Z,50.06
2022-07-29T16:34:23.057Z,49.92
2022-07-29T16:36:49.810Z,49.92
2022-07-29T16:39:16.854Z,50.04
2022-07-29T16:41:43.689Z,49.99
2022-07-29T16:44:10.457Z,49.67
2022-07-29T16:46:37.580Z,49.74
2022-07-29T16:49:07.043Z,49.75
2022-07-29T16:51:34.014Z,50.02
2022-07-29T16:54:00.901Z,49.87
2022-07-29T16:56:27.762Z,49.57
2022-07-29T16:58:54.534Z,49.57
2022-07-29T17:01:21.530Z,49.68
2022-07-29T17:04:06.750Z,49.71
2022-07-29T17:06:35.449Z,49.32
2022-07-29T17:09:06.929Z,49.50
2022-07-29T17:11:52.477Z,49.50
2022-07-29T17:14:24.168Z,49.68
2022-07-29T17:17:01.245Z,49.35
2022-07-29T17:19:34.240Z,49.42
2022-07-29T17:22:10.503Z,49.53
2022-07-29T17:24:41.363Z,49.62
2022-07-29T17:27:09.463Z,49.72
2022-07-29T17:29:36.389Z,49.57
2022-07-29T17:32:03.843Z,49.39
2022-07-29T17:34:34.119Z,49.35
2022-07-29T17:37:01.345Z,49.13
2022-07-29T17:39:28.504Z,49.42
2022-07-29T17:41:55.306Z,49.13
2022-07-29T17:44:22.124Z,49.32
2022-07-29T17:46:49.035Z,49.45
2022-07-29T17:49:15.888Z,49.46
2022-07-29T17:51:42.708Z,49.18
2022-07-29T17:54:09.606Z,49.05
2022-07-29T17:56:36.597Z,49.09
2022-07-29T17:59:06.703Z,49.20
2022-07-29T18:01:34.556Z,48.89
2022-07-29T18:04:02.884Z,49.16
2022-07-29T18:06:29.858Z,49.03
2022-07-29T18:08:56.773Z,48.74
2022-07-29T18:11:23.824Z,48.83
2022-07-29T18:13:50.592Z,49.09
2022-07-29T18:16:18.668Z,48.64
2022-07-29T18:18:46.000Z,49.01
2022-07-29T18:21:13.074Z,48.68
2022-07-29T18:23:40.326Z,48.46
2022-07-29T18:26:07.249Z,48.62
2022-07-29T18:28:34.241Z,48.53
2022-07-29T18:31:01.463Z,49.12
2022-07-29T18:33:28.306Z,48.69
2022-07-29T18:36:04.233Z,48.68
2022-07-29T18:38:38.455Z,48.77
2022-07-29T18:41:05.209Z,48.70
2022-07-29T18:43:31.940Z,48.68
2022-07-29T18:45:58.827Z,48.68
2022-07-29T18:48:25.679Z,48.53
2022-07-29T18:50:52.522Z,49.19
2022-07-29T18:53:19.479Z,49.00
2022-07-29T18:55:46.453Z,49.25
2022-07-29T18:58:13.245Z,48.93
2022-07-29T19:00:40.155Z,48.57
2022-07-29T19:03:08.531Z,49.14
2022-07-29T19:05:35.684Z,49.10
2022-07-29T19:08:02.554Z,48.94
2022-07-29T19:10:29.666Z,48.70
2022-07-29T19:12:57.046Z,49.25
2022-07-29T19:15:24.022Z,48.98
2022-07-29T19:17:50.854Z,48.98
2022-07-29T19:20:17.803Z,49.06
2022-07-29T19:22:45.022Z,49.14
2022-07-29T19:25:12.002Z,49.00
2022-07-29T19:27:38.863Z,49.21
2022-07-29T19:30:07.960Z,49.18
2022-07-29T19:32:34.805Z,49.30
2022-07-29T19:35:20.413Z,49.33
2022-07-29T19:37:47.246Z,49.35
2022-07-29T19:40:14.057Z,49.83
2022-07-29T19:42:40.997Z,49.82
2022-07-29T19:45:08.448Z,50.03
2022-07-29T19:47:35.332Z,49.84
2022-07-29T19:50:02.622Z,50.07
2022-07-29T19:52:29.426Z,50.50
2022-07-29T19:54:56.610Z,50.33
2022-07-29T19:57:24.213Z,50.59
2022-07-29T19:59:51.117Z,51.19
2022-07-29T20:02:17.965Z,50.72
2022-07-29T20:04:45.151Z,51.34
2022-07-29T20:07:13.176Z,51.52
2022-07-29T20:09:41.019Z,51.50
2022-07-29T20:12:11.390Z,51.96
2022-07-29T20:14:38.692Z,51.85
2022-07-29T20:17:05.546Z,52.25
2022-07-29T20:19:33.104Z,52.61
2022-07-29T20:22:00.964Z,52.29
2022-07-29T20:24:27.727Z,52.36
2022-07-29T20:26:54.618Z,52.42
2022-07-29T20:29:21.433Z,52.90
2022-07-29T20:31:52.282Z,52.96
2022-07-29T20:34:23.636Z,52.62
2022-07-29T20:36:50.611Z,52.93
2022-07-29T20:39:17.539Z,52.94
2022-07-29T20:41:44.744Z,52.79
2022-07-29T20:44:11.506Z,53.14
2022-07-29T20:46:39.575Z,53.22
2022-07-29T20:49:07.087Z,53.19
2022-07-29T20:51:43.477Z,53.58
2022-07-29T20:54:11.190Z,53.55
2022-07-29T20:56:38.354Z,53.06
2022-07-29T20:59:05.189Z,53.62
2022-07-29T21:01:32.087Z,53.18
2022-07-29T21:04:00.385Z,53.41
2022-07-29T21:06:27.372Z,53.77
2022-07-29T21:08:56.047Z,53.39
2022-07-29T21:11:44.038Z,53.58
2022-07-29T21:14:09.729Z,53.39
2022-07-29T21:16:36.689Z,53.78
2022-07-29T21:19:03.708Z,53.35
2022-07-29T21:21:30.718Z,53.54
2022-07-29T21:23:57.602Z,53.77
2022-07-29T21:26:24.430Z,53.31
2022-07-29T21:28:51.233Z,53.60
2022-07-29T21:31:18.135Z,53.44
2022-07-29T21:33:46.506Z,53.63
2022-07-29T21:36:47.710Z,53.83
2022-07-29T21:39:07.244Z,53.56
2022-07-29T21:41:34.668Z,53.46
2022-07-29T21:44:01.612Z,53.90
2022-07-29T21:46:28.573Z,53.67
2022-07-29T21:48:55.549Z,53.82
2022-07-29T21:51:22.453Z,53.94
2022-07-29T21:53:50.650Z,53.65
2022-07-29T21:56:20.128Z,53.72
2022-07-29T21:58:49.393Z,53.83
2022-07-29T22:01:16.230Z,53.73
2022-07-29T22:03:43.218Z,53.79
2022-07-29T22:06:11.323Z,53.89
2022-07-29T22:08:45.904Z,54.15
2022-07-29T22:11:13.737Z,53.88
2022-07-29T22:13:40.657Z,53.70
2022-07-29T22:16:09.722Z,53.99
2022-07-29T22:18:36.458Z,53.71
2022-07-29T22:21:03.303Z,53.94
2022-07-29T22:23:30.118Z,53.80
2022-07-29T22:25:57.369Z,54.18
2022-07-29T22:28:24.184Z,54.14
2022-07-29T22:30:51.143Z,54.01
2022-07-29T22:33:18.299Z,54.21
2022-07-29T22:35:48.998Z,54.34
2022-07-29T22:38:19.488Z,54.17
2022-07-29T22:40:48.720Z,54.77
2022-07-29T22:43:17.300Z,54.75
2022-07-29T22:45:44.460Z,54.35
2022-07-29T22:48:11.579Z,54.29
2022-07-29T22:50:39.125Z,54.26
2022-07-29T22:53:06.089Z,54.60
2022-07-29T22:55:33.143Z,54.39
2022-07-29T22:57:59.897Z,54.53
2022-07-29T23:00:27.034Z,54.18
2022-07-29T23:02:53.769Z,54.04
2022-07-29T23:05:20.557Z,54.04
2022-07-29T23:07:47.623Z,54.20
2022-07-29T23:10:14.583Z,54.07
2022-07-29T23:12:41.325Z,53.84
2022-07-29T23:15:08.387Z,53.63
2022-07-29T23:17:36.330Z,53.59
2022-07-29T23:20:06.482Z,53.87
2022-07-29T23:22:33.374Z,53.54
2022-07-29T23:25:07.708Z,53.77
2022-07-29T23:27:34.600Z,53.86
2022-07-29T23:30:01.440Z,54.07
2022-07-29T23:32:28.228Z,53.90
2022-07-29T23:34:55.088Z,54.08
2022-07-29T23:37:22.142Z,53.62
2022-07-29T23:39:48.963Z,53.77
2022-07-29T23:42:15.841Z,54.11
2022-07-29T23:44:43.078Z,54.09
2022-07-29T23:47:09.977Z,53.78
2022-07-29T23:49:36.944Z,54.30
2022-07-29T23:52:03.843Z,54.11
2022-07-29T23:54:30.695Z,54.35
2022-07-29T23:56:58.334Z,54.37
2022-07-29T23:59:25.503Z,54.72
